createdAt,value
2022-09-13T00:00:28.789Z,15.10
2022-09-13T00:01:30.317Z,15.00
2022-09-13T00:02:32.394Z,15.00
2022-09-13T00:03:34.147Z,15.10
2022-09-13T00:04:35.970Z,15.10
2022-09-13T00:05:38.878Z,15.00
2022-09-13T00:06:40.592Z,15.10
2022-09-13T00:07:41.977Z,15.10
2022-09-13T00:08:44.103Z,15.00
2022-09-13T00:09:45.568Z,15.00
2022-09-13T00:10:47.970Z,14.90
2022-09-13T00:11:49.648Z,15.00
2022-09-13T00:12:52.025Z,14.90
2022-09-13T00:13:55.137Z,15.00
2022-09-13T00:14:57.091Z,14.90
2022-09-13T00:16:01.131Z,14.90
2022-09-13T00:17:02.725Z,14.90
2022-09-13T00:18:04.279Z,14.90
2022-09-13T00:19:05.749Z,14.90
2022-09-13T00:20:08.899Z,14.90
2022-09-13T00:21:14.486Z,14.90
2022-09-13T00:22:15.979Z,14.90
2022-09-13T00:23:17.461Z,14.90
2022-09-13T00:24:18.923Z,14.90
2022-09-13T00:25:21.199Z,14.80
2022-09-13T00:26:26.337Z,14.90
2022-09-13T00:27:28.161Z,14.80
2022-09-13T00:28:29.614Z,14.70
2022-09-13T00:29:31.182Z,14.80
2022-09-13T00:30:33.424Z,14.80
2022-09-13T00:31:35.443Z,14.80
2022-09-13T00:32:37.586Z,14.90
2022-09-13T00:33:39.314Z,14.90
2022-09-13T00:34:41.071Z,14.90
2022-09-13T00:35:42.537Z,14.80
2022-09-13T00:36:44.142Z,14.90
2022-09-13T00:37:46.142Z,14.80
2022-09-13T00:38:47.653Z,14.80
2022-09-13T00:39:49.995Z,14.90
2022-09-13T00:40:51.523Z,14.90
2022-09-13T00:41:53.113Z,14.80
2022-09-13T00:42:55.116Z,14.90
2022-09-13T00:43:59.086Z,14.80
2022-09-13T00:45:11.049Z,14.80
2022-09-13T00:46:27.708Z,14.80
2022-09-13T00:47:47.969Z,14.80
2022-09-13T00:48:53.048Z,14.70
2022-09-13T00:50:01.189Z,14.80
2022-09-13T00:51:04.964Z,14.80
2022-09-13T00:52:13.873Z,14.70
2022-09-13T00:53:25.085Z,14.80
2022-09-13T00:54:31.056Z,14.80
2022-09-13T00:55:42.992Z,14.70
2022-09-13T00:56:50.620Z,14.70
2022-09-13T00:57:53.769Z,14.70
2022-09-13T00:59:01.238Z,14.80
2022-09-13T01:00:13.516Z,14.80
2022-09-13T01:01:16.824Z,14.70
2022-09-13T01:02:19.610Z,14.80
2022-09-13T01:03:25.012Z,14.70
2022-09-13T01:04:29.034Z,14.70
2022-09-13T01:05:37.210Z,14.70
2022-09-13T01:06:40.636Z,14.70
2022-09-13T01:07:42.626Z,14.70
2022-09-13T01:08:48.606Z,14.70
2022-09-13T01:09:52.344Z,14.70
2022-09-13T01:10:56.524Z,14.70
2022-09-13T01:12:26.229Z,14.70
2022-09-13T01:13:32.273Z,14.60
2022-09-13T01:14:34.575Z,14.60
2022-09-13T01:15:36.347Z,14.60
2022-09-13T01:16:38.102Z,14.60
2022-09-13T01:17:40.267Z,14.60
2022-09-13T01:18:41.718Z,14.60
2022-09-13T01:19:43.180Z,14.60
2022-09-13T01:21:28.811Z,14.60
2022-09-13T01:22:39.048Z,14.60
2022-09-13T01:24:05.756Z,14.60
2022-09-13T01:25:07.143Z,14.50
2022-09-13T01:26:26.521Z,14.50
2022-09-13T01:27:43.083Z,14.60
2022-09-13T01:29:02.803Z,14.60
2022-09-13T01:30:29.327Z,14.60
2022-09-13T01:31:43.590Z,14.60
2022-09-13T01:33:09.314Z,14.50
2022-09-13T01:34:39.278Z,14.60
2022-09-13T01:36:21.794Z,14.60
2022-09-13T01:37:41.779Z,14.50
2022-09-13T01:39:31.042Z,14.50
2022-09-13T01:40:50.698Z,14.60
2022-09-13T01:41:54.863Z,14.50
2022-09-13T01:43:12.976Z,14.50
2022-09-13T01:44:37.007Z,14.50
2022-09-13T01:45:41.511Z,14.40
2022-09-13T01:47:06.424Z,14.40
2022-09-13T01:48:34.323Z,14.50
2022-09-13T01:49:55.751Z,14.60
2022-09-13T01:51:06.742Z,14.50
2022-09-13T01:52:10.838Z,14.40
2022-09-13T01:53:27.611Z,14.40
2022-09-13T01:54:57.829Z,14.40
2022-09-13T01:56:08.166Z,14.40
2022-09-13T01:57:26.228Z,14.40
2022-09-13T01:58:40.838Z,14.40
2022-09-13T02:00:00.130Z,14.40
2022-09-13T02:01:04.951Z,14.30
2022-09-13T02:02:16.147Z,14.30
2022-09-13T02:03:23.938Z,14.30
2022-09-13T02:04:36.696Z,14.30
2022-09-13T02:05:47.864Z,14.30
2022-09-13T02:06:57.931Z,14.30
2022-09-13T02:08:09.969Z,14.40
2022-09-13T02:09:21.426Z,14.30
2022-09-13T02:10:30.429Z,14.30
2022-09-13T02:11:33.593Z,14.40
2022-09-13T02:12:37.621Z,14.30
2022-09-13T02:13:52.034Z,14.30
2022-09-13T02:15:02.748Z,14.20
2022-09-13T02:16:16.566Z,14.20
2022-09-13T02:17:23.158Z,14.30
2022-09-13T02:18:31.734Z,14.30
2022-09-13T02:19:49.506Z,14.30
2022-09-13T02:20:53.590Z,14.30
2022-09-13T02:21:59.663Z,14.20
2022-09-13T02:23:05.676Z,14.30
2022-09-13T02:24:11.354Z,14.20
2022-09-13T02:25:17.425Z,14.20
2022-09-13T02:26:21.320Z,14.30
2022-09-13T02:27:27.882Z,14.30
2022-09-13T02:28:36.572Z,14.30
2022-09-13T02:29:42.600Z,14.30
2022-09-13T02:30:50.727Z,14.40
2022-09-13T02:32:00.440Z,14.30
2022-09-13T02:33:07.122Z,14.30
2022-09-13T02:34:14.290Z,14.40
2022-09-13T02:35:32.346Z,14.40
2022-09-13T02:36:40.880Z,14.30
2022-09-13T02:37:47.190Z,14.30
2022-09-13T02:39:01.180Z,14.30
2022-09-13T02:40:07.470Z,14.30
2022-09-13T02:41:33.780Z,14.40
2022-09-13T02:42:42.199Z,14.30
2022-09-13T02:43:55.808Z,14.30
2022-09-13T02:45:02.290Z,14.30
2022-09-13T02:46:32.288Z,14.30
2022-09-13T02:47:41.560Z,14.30
2022-09-13T02:48:48.850Z,14.30
2022-09-13T02:50:02.690Z,14.30
2022-09-13T02:51:52.372Z,14.30
2022-09-13T02:52:54.417Z,14.30
2022-09-13T02:54:15.670Z,14.30
2022-09-13T02:55:23.442Z,14.30
2022-09-13T02:56:50.701Z,14.20
2022-09-13T02:58:34.493Z,14.30
2022-09-13T02:59:36.781Z,14.30
2022-09-13T03:00:39.197Z,14.20
2022-09-13T03:01:45.165Z,14.20
2022-09-13T03:02:48.593Z,14.20
2022-09-13T03:03:53.419Z,14.20
2022-09-13T03:04:55.215Z,14.20
2022-09-13T03:05:57.172Z,14.30
2022-09-13T03:06:58.583Z,14.20
2022-09-13T03:08:02.889Z,14.20
2022-09-13T03:09:06.950Z,14.30
2022-09-13T03:10:13.141Z,14.30
2022-09-13T03:12:00.380Z,14.30
2022-09-13T03:13:18.435Z,14.50
2022-09-13T03:14:23.234Z,14.50
2022-09-13T03:16:00.374Z,14.40
2022-09-13T03:17:18.984Z,14.40
2022-09-13T03:18:38.277Z,14.40
2022-09-13T03:20:01.020Z,14.40
2022-09-13T03:21:21.197Z,14.40
2022-09-13T03:22:34.964Z,14.40
2022-09-13T03:23:42.394Z,14.40
2022-09-13T03:25:28.330Z,14.40
2022-09-13T03:27:10.519Z,14.40
2022-09-13T03:28:31.165Z,14.30
2022-09-13T03:29:42.731Z,14.30
2022-09-13T03:30:50.976Z,14.30
2022-09-13T03:32:08.244Z,14.30
2022-09-13T03:33:10.037Z,14.30
2022-09-13T03:34:44.625Z,14.20
2022-09-13T03:36:01.563Z,14.30
2022-09-13T03:37:23.707Z,14.20
2022-09-13T03:38:32.256Z,14.20
2022-09-13T03:40:06.995Z,14.30
2022-09-13T03:41:11.437Z,14.20
2022-09-13T03:42:23.353Z,14.30
2022-09-13T03:43:39.331Z,14.30
2022-09-13T03:44:42.492Z,14.30
2022-09-13T03:45:52.342Z,14.30
2022-09-13T03:46:57.961Z,14.40
2022-09-13T03:48:00.952Z,14.30
2022-09-13T03:49:10.621Z,14.30
2022-09-13T03:50:18.147Z,14.30
2022-09-13T03:51:19.881Z,14.30
2022-09-13T03:52:21.572Z,14.30
2022-09-13T03:53:28.475Z,14.30
2022-09-13T03:54:32.497Z,14.30
2022-09-13T03:55:38.651Z,14.30
2022-09-13T03:56:40.941Z,14.20
2022-09-13T03:57:42.424Z,14.30
2022-09-13T03:58:44.314Z,14.30
2022-09-13T03:59:54.575Z,14.30
2022-09-13T04:00:57.372Z,14.30
2022-09-13T04:01:59.973Z,14.30
2022-09-13T04:03:01.728Z,14.30
2022-09-13T04:04:03.449Z,14.30
2022-09-13T04:05:05.537Z,14.30
2022-09-13T04:06:07.680Z,14.30
2022-09-13T04:07:11.532Z,14.30
2022-09-13T04:08:13.024Z,14.30
2022-09-13T04:09:14.863Z,14.40
2022-09-13T04:10:16.369Z,14.30
2022-09-13T04:11:17.976Z,14.30
2022-09-13T04:12:19.832Z,14.30
2022-09-13T04:13:22.488Z,14.30
2022-09-13T04:14:26.780Z,14.30
2022-09-13T04:15:30.906Z,14.40
2022-09-13T04:16:32.476Z,14.30
2022-09-13T04:17:34.287Z,14.30
2022-09-13T04:18:36.178Z,14.30
2022-09-13T04:19:37.787Z,14.30
2022-09-13T04:20:39.373Z,14.30
2022-09-13T04:21:41.055Z,14.30
2022-09-13T04:22:42.763Z,14.30
2022-09-13T04:23:44.320Z,14.30
2022-09-13T04:24:46.106Z,14.30
2022-09-13T04:25:47.855Z,14.30
2022-09-13T04:26:51.244Z,14.30
2022-09-13T04:27:56.501Z,14.30
2022-09-13T04:28:58.101Z,14.30
2022-09-13T04:29:59.488Z,14.30
2022-09-13T04:31:00.998Z,14.30
2022-09-13T04:32:02.710Z,14.30
2022-09-13T04:33:04.221Z,14.30
2022-09-13T04:34:06.570Z,14.30
2022-09-13T04:35:09.256Z,14.30
2022-09-13T04:36:10.674Z,14.30
2022-09-13T04:37:12.154Z,14.30
2022-09-13T04:38:13.657Z,14.30
2022-09-13T04:39:15.243Z,14.30
2022-09-13T04:40:16.805Z,14.30
2022-09-13T04:41:18.325Z,14.30
2022-09-13T04:42:19.832Z,14.30
2022-09-13T04:43:21.654Z,14.20
2022-09-13T04:44:24.231Z,14.20
2022-09-13T04:45:25.766Z,14.20
2022-09-13T04:46:27.997Z,14.20
2022-09-13T04:47:29.544Z,14.20
2022-09-13T04:48:31.078Z,14.20
2022-09-13T04:49:32.558Z,14.20
2022-09-13T04:50:33.987Z,14.20
2022-09-13T04:51:37.482Z,14.20
2022-09-13T04:52:39.500Z,14.20
2022-09-13T04:53:40.915Z,14.30
2022-09-13T04:54:42.576Z,14.20
2022-09-13T04:55:44.409Z,14.20
2022-09-13T04:56:47.080Z,14.20
2022-09-13T04:57:53.850Z,14.30
2022-09-13T04:58:56.371Z,14.30
2022-09-13T04:59:57.833Z,14.30
2022-09-13T05:01:07.037Z,14.30
2022-09-13T05:02:08.524Z,14.20
2022-09-13T05:03:10.055Z,14.30
2022-09-13T05:04:11.946Z,14.20
2022-09-13T05:05:13.655Z,14.20
2022-09-13T05:06:20.957Z,14.30
2022-09-13T05:07:22.637Z,14.30
2022-09-13T05:08:24.028Z,14.30
2022-09-13T05:09:25.646Z,14.30
2022-09-13T05:10:27.440Z,14.20
2022-09-13T05:11:29.690Z,14.20
2022-09-13T05:12:31.838Z,14.20
2022-09-13T05:13:33.699Z,14.30
2022-09-13T05:14:35.498Z,14.20
2022-09-13T05:15:37.020Z,14.30
2022-09-13T05:16:38.879Z,14.30
2022-09-13T05:17:40.313Z,14.30
2022-09-13T05:18:45.131Z,14.40
2022-09-13T05:19:46.798Z,14.40
2022-09-13T05:20:48.288Z,14.40
2022-09-13T05:21:50.500Z,14.40
2022-09-13T05:22:51.907Z,14.40
2022-09-13T05:23:54.173Z,14.40
2022-09-13T05:24:56.285Z,14.40
2022-09-13T05:26:00.454Z,14.40
2022-09-13T05:27:02.374Z,14.40
2022-09-13T05:28:03.827Z,14.40
2022-09-13T05:29:05.808Z,14.40
2022-09-13T05:30:07.645Z,14.40
2022-09-13T05:31:24.976Z,14.40
2022-09-13T05:32:26.422Z,14.50
2022-09-13T05:33:30.111Z,14.50
2022-09-13T05:34:31.837Z,14.40
2022-09-13T05:35:33.583Z,14.50
2022-09-13T05:36:35.102Z,14.50
2022-09-13T05:37:36.507Z,14.50
2022-09-13T05:38:38.252Z,14.50
2022-09-13T05:40:07.316Z,14.50
2022-09-13T05:41:03.471Z,14.50
2022-09-13T05:42:05.261Z,14.50
2022-09-13T05:43:07.020Z,14.50
2022-09-13T05:44:13.273Z,14.50
2022-09-13T05:45:15.527Z,14.50
2022-09-13T05:46:19.720Z,14.50
2022-09-13T05:47:21.722Z,14.60
2022-09-13T05:48:23.305Z,14.60
2022-09-13T05:49:25.225Z,14.60
2022-09-13T05:50:56.451Z,14.60
2022-09-13T05:51:48.523Z,14.60
2022-09-13T05:52:54.521Z,14.60
2022-09-13T05:53:57.002Z,14.60
2022-09-13T05:54:58.771Z,14.60
2022-09-13T05:56:00.937Z,14.70
2022-09-13T05:57:02.475Z,14.70
2022-09-13T05:58:04.296Z,14.70
2022-09-13T05:59:06.184Z,14.70
2022-09-13T06:00:08.295Z,14.80
2022-09-13T06:01:25.055Z,14.80
2022-09-13T06:02:26.649Z,14.80
2022-09-13T06:03:28.219Z,14.90
2022-09-13T06:04:29.712Z,14.80
2022-09-13T06:05:32.082Z,14.90
2022-09-13T06:06:35.690Z,14.90
2022-09-13T06:07:39.468Z,14.90
2022-09-13T06:08:41.601Z,14.90
2022-09-13T06:09:43.033Z,15.00
2022-09-13T06:10:53.982Z,15.00
2022-09-13T06:11:55.639Z,14.90
2022-09-13T06:12:57.066Z,15.00
2022-09-13T06:13:58.975Z,15.10
2022-09-13T06:15:00.376Z,15.00
2022-09-13T06:16:04.500Z,15.10
2022-09-13T06:17:06.072Z,15.10
2022-09-13T06:18:07.878Z,15.10
2022-09-13T06:19:09.352Z,15.10
2022-09-13T06:20:11.018Z,15.10
2022-09-13T06:21:18.335Z,15.20
2022-09-13T06:22:19.914Z,15.30
2022-09-13T06:23:21.371Z,15.40
2022-09-13T06:24:22.798Z,15.40
2022-09-13T06:25:24.196Z,15.40
2022-09-13T06:26:28.040Z,15.50
2022-09-13T06:27:31.062Z,15.60
2022-09-13T06:28:36.754Z,15.60
2022-09-13T06:29:39.645Z,15.70
2022-09-13T06:30:41.080Z,15.70
2022-09-13T06:31:45.205Z,15.80
2022-09-13T06:32:46.976Z,15.80
2022-09-13T06:33:49.071Z,15.90
2022-09-13T06:34:50.727Z,16.00
2022-09-13T06:35:52.208Z,16.00
2022-09-13T06:36:53.944Z,16.10
2022-09-13T06:37:57.779Z,16.10
2022-09-13T06:39:00.658Z,16.20
2022-09-13T06:40:04.992Z,16.20
2022-09-13T06:41:09.984Z,16.30
2022-09-13T06:42:11.849Z,16.40
2022-09-13T06:43:16.209Z,16.40
2022-09-13T06:44:17.640Z,16.50
2022-09-13T06:45:19.127Z,16.60
2022-09-13T06:46:24.926Z,16.60
2022-09-13T06:47:26.901Z,16.60
2022-09-13T06:48:31.343Z,16.70
2022-09-13T06:49:58.723Z,16.70
2022-09-13T06:51:05.348Z,16.80
2022-09-13T06:52:06.778Z,16.80
2022-09-13T06:53:08.456Z,16.90
2022-09-13T06:54:09.990Z,17.00
2022-09-13T06:55:12.804Z,17.10
2022-09-13T06:56:17.359Z,17.10
2022-09-13T06:57:18.775Z,17.10
2022-09-13T06:58:20.245Z,17.10
2022-09-13T06:59:21.828Z,17.20
2022-09-13T07:00:23.342Z,17.20
2022-09-13T07:01:28.035Z,17.20
2022-09-13T07:02:29.942Z,17.30
2022-09-13T07:03:31.356Z,17.30
2022-09-13T07:04:32.878Z,17.40
2022-09-13T07:05:34.383Z,17.40
2022-09-13T07:06:38.443Z,17.50
2022-09-13T07:07:40.193Z,17.50
2022-09-13T07:08:43.476Z,17.60
2022-09-13T07:09:44.923Z,17.60
2022-09-13T07:10:46.398Z,17.70
2022-09-13T07:11:53.185Z,17.70
2022-09-13T07:12:54.764Z,17.80
2022-09-13T07:13:58.636Z,17.80
2022-09-13T07:15:00.042Z,17.80
2022-09-13T07:16:03.690Z,17.90
2022-09-13T07:17:05.118Z,17.90
2022-09-13T07:18:08.186Z,18.00
2022-09-13T07:19:18.576Z,18.00
2022-09-13T07:20:23.678Z,18.10
2022-09-13T07:21:26.178Z,18.10
2022-09-13T07:22:28.177Z,18.10
2022-09-13T07:23:31.766Z,18.10
2022-09-13T07:24:33.274Z,18.20
2022-09-13T07:25:34.776Z,18.20
2022-09-13T07:26:36.497Z,18.30
2022-09-13T07:27:38.102Z,18.30
2022-09-13T07:28:42.061Z,18.50
2022-09-13T07:29:43.483Z,18.50
2022-09-13T07:30:45.154Z,18.60
2022-09-13T07:31:48.839Z,18.70
2022-09-13T07:32:50.248Z,18.70
2022-09-13T07:33:57.276Z,18.80
2022-09-13T07:34:58.686Z,18.80
2022-09-13T07:36:02.142Z,18.90
2022-09-13T07:37:03.603Z,18.90
2022-09-13T07:38:04.997Z,19.00
2022-09-13T07:39:08.270Z,19.00
2022-09-13T07:40:13.992Z,19.10
2022-09-13T07:41:18.275Z,19.10
2022-09-13T07:42:19.665Z,19.20
2022-09-13T07:43:22.012Z,19.20
2022-09-13T07:44:23.408Z,19.30
2022-09-13T07:45:24.931Z,19.30
2022-09-13T07:46:28.576Z,19.30
2022-09-13T07:47:33.698Z,19.30
2022-09-13T07:48:38.415Z,19.30
2022-09-13T07:49:40.018Z,19.40
2022-09-13T07:50:41.472Z,19.30
2022-09-13T07:51:44.099Z,19.30
2022-09-13T07:52:46.120Z,19.30
2022-09-13T07:53:52.615Z,19.40
2022-09-13T07:54:59.055Z,19.40
2022-09-13T07:56:11.843Z,19.50
2022-09-13T07:57:13.452Z,19.60
2022-09-13T07:58:15.236Z,19.60
2022-09-13T07:59:17.714Z,19.60
2022-09-13T08:00:19.389Z,19.70
2022-09-13T08:01:50.822Z,19.80
2022-09-13T08:02:52.433Z,19.90
2022-09-13T08:03:59.751Z,20.00
2022-09-13T08:05:01.490Z,20.00
2022-09-13T08:06:04.782Z,20.10
2022-09-13T08:07:06.463Z,20.20
2022-09-13T08:08:08.008Z,20.20
2022-09-13T08:09:10.572Z,20.30
2022-09-13T08:10:12.047Z,20.30
2022-09-13T08:11:18.405Z,20.40
2022-09-13T08:12:20.206Z,20.40
2022-09-13T08:13:21.995Z,20.50
2022-09-13T08:14:24.076Z,20.40
2022-09-13T08:15:26.658Z,20.50
2022-09-13T08:16:30.031Z,20.40
2022-09-13T08:17:31.679Z,20.40
2022-09-13T08:18:33.915Z,20.50
2022-09-13T08:19:37.624Z,20.50
2022-09-13T08:20:40.175Z,20.50
2022-09-13T08:21:42.495Z,20.60
2022-09-13T08:22:43.987Z,20.60
2022-09-13T08:23:46.070Z,20.70
2022-09-13T08:24:47.520Z,20.80
2022-09-13T08:25:48.954Z,20.80
2022-09-13T08:26:52.404Z,20.90
2022-09-13T08:27:53.830Z,20.90
2022-09-13T08:29:00.450Z,20.90
2022-09-13T08:30:02.547Z,21.00
2022-09-13T08:31:17.110Z,21.10
2022-09-13T08:32:18.889Z,21.20
2022-09-13T08:33:20.612Z,21.10
2022-09-13T08:34:22.377Z,21.10
2022-09-13T08:35:23.882Z,21.10
2022-09-13T08:36:27.405Z,21.10
2022-09-13T08:37:29.067Z,21.10
2022-09-13T08:38:31.093Z,21.10
2022-09-13T08:39:33.677Z,21.10
2022-09-13T08:40:41.783Z,21.20
2022-09-13T08:41:45.270Z,21.30
2022-09-13T08:42:56.617Z,21.30
2022-09-13T08:44:09.213Z,21.40
2022-09-13T08:45:10.930Z,21.50
2022-09-13T08:46:41.808Z,21.60
2022-09-13T08:48:02.092Z,21.60
2022-09-13T08:49:22.994Z,21.70
2022-09-13T08:50:36.779Z,21.70
2022-09-13T08:51:44.927Z,21.80
2022-09-13T08:52:58.666Z,21.90
2022-09-13T08:54:04.695Z,21.90
2022-09-13T08:55:26.351Z,22.00
2022-09-13T08:56:46.421Z,22.10
2022-09-13T08:57:55.394Z,22.20
2022-09-13T08:59:32.377Z,22.20
2022-09-13T09:00:39.657Z,22.20
2022-09-13T09:01:53.202Z,22.30
2022-09-13T09:03:38.595Z,22.30
2022-09-13T09:05:04.379Z,22.40
2022-09-13T09:06:12.586Z,22.50
2022-09-13T09:07:26.889Z,22.60
2022-09-13T09:08:35.905Z,22.60
2022-09-13T09:09:46.025Z,22.70
2022-09-13T09:10:51.241Z,22.80
2022-09-13T09:11:59.569Z,22.80
2022-09-13T09:13:14.050Z,22.80
2022-09-13T09:14:23.397Z,23.00
2022-09-13T09:15:29.908Z,23.00
2022-09-13T09:16:46.286Z,23.10
2022-09-13T09:17:59.985Z,23.10
2022-09-13T09:19:18.810Z,23.20
2022-09-13T09:20:34.164Z,23.20
2022-09-13T09:21:36.954Z,23.20
2022-09-13T09:22:38.708Z,23.20
2022-09-13T09:24:01.605Z,23.20
2022-09-13T09:25:04.010Z,23.20
2022-09-13T09:26:21.185Z,23.10
2022-09-13T09:27:23.493Z,23.10
2022-09-13T09:28:26.851Z,23.00
2022-09-13T09:29:32.708Z,23.00
2022-09-13T09:30:47.867Z,23.00
2022-09-13T09:31:59.151Z,23.00
2022-09-13T09:33:18.353Z,23.00
2022-09-13T09:34:42.882Z,23.00
2022-09-13T09:36:03.138Z,22.90
2022-09-13T09:37:08.303Z,22.90
2022-09-13T09:38:32.665Z,23.00
2022-09-13T09:39:38.957Z,22.90
2022-09-13T09:40:46.613Z,23.00
2022-09-13T09:41:48.297Z,23.00
2022-09-13T09:42:50.864Z,22.90
2022-09-13T09:44:13.636Z,22.90
2022-09-13T09:45:21.271Z,22.90
2022-09-13T09:46:27.529Z,22.90
2022-09-13T09:47:34.317Z,22.90
2022-09-13T09:48:45.455Z,22.90
2022-09-13T09:50:09.233Z,22.90
2022-09-13T09:51:14.031Z,22.90
2022-09-13T09:52:19.459Z,22.90
2022-09-13T09:53:31.601Z,23.00
2022-09-13T09:54:39.014Z,23.00
2022-09-13T09:55:51.976Z,23.00
2022-09-13T09:56:55.760Z,23.10
2022-09-13T09:58:04.513Z,23.10
2022-09-13T09:59:26.780Z,23.00
2022-09-13T10:00:35.305Z,23.10
2022-09-13T10:01:38.635Z,23.20
2022-09-13T10:02:44.657Z,23.20
2022-09-13T10:04:10.925Z,23.20
2022-09-13T10:05:13.450Z,23.30
2022-09-13T10:06:19.918Z,23.40
2022-09-13T10:07:32.625Z,23.30
2022-09-13T10:08:37.467Z,23.50
2022-09-13T10:09:39.703Z,23.60
2022-09-13T10:10:52.974Z,23.70
2022-09-13T10:11:57.534Z,23.80
2022-09-13T10:12:59.695Z,23.90
2022-09-13T10:14:03.216Z,24.00
2022-09-13T10:15:26.570Z,24.10
2022-09-13T10:16:30.746Z,24.30
2022-09-13T10:17:32.245Z,24.40
2022-09-13T10:18:46.385Z,24.50
2022-09-13T10:20:03.905Z,24.50
2022-09-13T10:21:20.305Z,24.60
2022-09-13T10:22:23.007Z,24.70
2022-09-13T10:23:24.392Z,24.80
2022-09-13T10:24:27.337Z,24.90
2022-09-13T10:25:29.445Z,24.90
2022-09-13T10:26:33.887Z,25.00
2022-09-13T10:27:42.245Z,25.10
2022-09-13T10:29:05.806Z,25.10
2022-09-13T10:30:08.112Z,25.20
2022-09-13T10:31:17.119Z,25.30
2022-09-13T10:32:19.855Z,25.40
2022-09-13T10:33:32.021Z,25.50
2022-09-13T10:34:36.881Z,25.50
2022-09-13T10:35:38.427Z,25.60
2022-09-13T10:36:56.454Z,25.70
2022-09-13T10:37:58.023Z,25.80
2022-09-13T10:39:12.674Z,25.90
2022-09-13T10:40:38.454Z,26.00
2022-09-13T10:41:42.800Z,26.00
2022-09-13T10:42:54.984Z,26.10
2022-09-13T10:43:59.026Z,26.20
2022-09-13T10:45:04.030Z,26.20
2022-09-13T10:46:14.274Z,26.30
2022-09-13T10:47:43.696Z,26.30
2022-09-13T10:48:59.116Z,26.30
2022-09-13T10:50:17.737Z,26.40
2022-09-13T10:51:35.773Z,26.40
2022-09-13T10:52:51.771Z,26.40
2022-09-13T10:54:10.686Z,26.50
2022-09-13T10:55:34.098Z,26.40
2022-09-13T10:56:35.586Z,26.40
2022-09-13T10:57:38.232Z,26.40
2022-09-13T10:58:39.833Z,26.40
2022-09-13T10:59:41.226Z,26.40
2022-09-13T11:01:04.271Z,26.50
2022-09-13T11:02:13.643Z,26.50
2022-09-13T11:03:27.278Z,26.60
2022-09-13T11:04:56.758Z,26.60
2022-09-13T11:06:24.520Z,26.60
2022-09-13T11:07:41.178Z,26.70
2022-09-13T11:09:07.146Z,26.80
2022-09-13T11:10:11.625Z,26.80
2022-09-13T11:11:50.949Z,26.90
2022-09-13T11:13:07.495Z,26.90
2022-09-13T11:14:38.627Z,26.90
2022-09-13T11:16:19.688Z,27.00
2022-09-13T11:17:21.160Z,27.10
2022-09-13T11:18:41.500Z,27.10
2022-09-13T11:20:05.170Z,27.20
2022-09-13T11:21:30.131Z,27.20
2022-09-13T11:23:09.863Z,27.30
2022-09-13T11:24:44.540Z,27.40
2022-09-13T11:26:01.022Z,27.40
2022-09-13T11:27:06.141Z,27.50
2022-09-13T11:28:16.417Z,27.70
2022-09-13T11:29:36.847Z,27.70
2022-09-13T11:31:04.744Z,27.80
2022-09-13T11:32:14.750Z,27.90
2022-09-13T11:33:49.827Z,28.00
2022-09-13T11:35:29.869Z,28.10
2022-09-13T11:36:50.033Z,28.30
2022-09-13T11:38:29.597Z,28.40
2022-09-13T11:39:43.729Z,28.50
2022-09-13T11:41:00.123Z,28.50
2022-09-13T11:42:19.480Z,28.70
2022-09-13T11:43:48.861Z,28.80
2022-09-13T11:45:12.589Z,28.70
2022-09-13T11:46:40.486Z,28.70
2022-09-13T11:48:18.882Z,28.70
2022-09-13T11:49:23.905Z,28.90
2022-09-13T11:50:46.334Z,28.90
2022-09-13T11:51:58.808Z,28.90
2022-09-13T11:53:03.326Z,28.90
2022-09-13T11:54:31.817Z,28.80
2022-09-13T11:56:02.677Z,28.90
2022-09-13T11:57:09.998Z,28.70
2022-09-13T11:58:16.379Z,28.70
2022-09-13T11:59:32.898Z,28.80
2022-09-13T12:01:02.297Z,28.80
2022-09-13T12:02:40.557Z,28.90
2022-09-13T12:04:02.819Z,28.90
2022-09-13T12:05:22.616Z,29.00
2022-09-13T12:06:35.648Z,29.10
2022-09-13T12:08:10.836Z,29.20
2022-09-13T12:09:36.319Z,29.30
2022-09-13T12:11:02.592Z,29.40
2022-09-13T12:12:07.840Z,29.50
2022-09-13T12:13:18.693Z,29.50
2022-09-13T12:14:27.601Z,29.50
2022-09-13T12:15:42.407Z,29.60
2022-09-13T12:16:48.746Z,29.60
2022-09-13T12:17:56.533Z,29.70
2022-09-13T12:19:02.198Z,29.70
2022-09-13T12:20:07.351Z,29.50
2022-09-13T12:21:12.533Z,29.40
2022-09-13T12:22:15.646Z,29.50
2022-09-13T12:23:53.486Z,29.50
2022-09-13T12:24:58.248Z,29.50
2022-09-13T12:26:13.748Z,29.50
2022-09-13T12:27:23.868Z,29.50
2022-09-13T12:28:39.833Z,29.50
2022-09-13T12:29:56.612Z,29.50
2022-09-13T12:31:07.418Z,29.40
2022-09-13T12:32:10.452Z,29.40
2022-09-13T12:33:16.011Z,29.40
2022-09-13T12:34:33.038Z,29.40
2022-09-13T12:36:03.705Z,29.40
2022-09-13T12:37:39.335Z,29.40
2022-09-13T12:38:49.455Z,29.30
2022-09-13T12:40:00.163Z,29.30
2022-09-13T12:41:07.936Z,29.30
2022-09-13T12:42:18.171Z,29.30
2022-09-13T12:44:14.626Z,29.30
2022-09-13T12:45:43.658Z,29.30
2022-09-13T12:47:22.980Z,29.30
2022-09-13T12:48:52.818Z,29.30
2022-09-13T12:52:11.461Z,29.40
2022-09-13T12:53:27.402Z,29.40
2022-09-13T12:54:48.013Z,29.40
2022-09-13T12:56:13.666Z,29.40
2022-09-13T12:57:25.804Z,29.30
2022-09-13T12:59:01.149Z,29.20
2022-09-13T13:00:12.648Z,29.30
2022-09-13T13:01:26.119Z,29.20
2022-09-13T13:02:33.004Z,29.10
2022-09-13T13:03:43.595Z,28.90
2022-09-13T13:04:54.413Z,29.00
2022-09-13T13:06:09.098Z,29.00
2022-09-13T13:07:21.682Z,29.00
2022-09-13T13:08:23.067Z,29.00
2022-09-13T13:09:53.688Z,29.10
2022-09-13T13:11:13.972Z,29.10
2022-09-13T13:12:33.443Z,29.10
2022-09-13T13:13:59.030Z,29.00
2022-09-13T13:15:06.389Z,28.90
2022-09-13T13:16:30.800Z,28.90
2022-09-13T13:17:52.950Z,29.00
2022-09-13T13:18:59.321Z,28.90
2022-09-13T13:20:21.280Z,28.90
2022-09-13T13:21:28.639Z,28.90
2022-09-13T13:23:03.937Z,29.00
2022-09-13T13:24:17.452Z,29.10
2022-09-13T13:25:39.174Z,29.10
2022-09-13T13:26:43.592Z,29.20
2022-09-13T13:27:48.552Z,29.30
2022-09-13T13:29:04.707Z,29.30
2022-09-13T13:30:42.708Z,29.30
2022-09-13T13:32:09.331Z,29.30
2022-09-13T13:33:23.830Z,29.30
2022-09-13T13:34:42.365Z,29.20
2022-09-13T13:35:44.149Z,29.40
2022-09-13T13:36:49.018Z,29.40
2022-09-13T13:37:50.864Z,29.50
2022-09-13T13:38:57.067Z,29.60
2022-09-13T13:40:22.869Z,29.70
2022-09-13T13:41:33.723Z,29.80
2022-09-13T13:42:38.678Z,29.90
2022-09-13T13:43:40.272Z,29.90
2022-09-13T13:44:42.020Z,30.00
2022-09-13T13:46:15.842Z,30.00
2022-09-13T13:47:20.193Z,30.00
2022-09-13T13:48:37.220Z,29.90
2022-09-13T13:49:38.742Z,29.80
2022-09-13T13:51:17.581Z,29.80
2022-09-13T13:52:22.432Z,29.80
2022-09-13T13:53:36.164Z,29.70
2022-09-13T13:54:47.353Z,29.70
2022-09-13T13:56:05.317Z,29.70
2022-09-13T13:57:25.740Z,29.60
2022-09-13T13:58:46.006Z,29.50
2022-09-13T13:59:50.497Z,29.40
2022-09-13T14:00:55.112Z,29.30
2022-09-13T14:02:01.564Z,29.20
2022-09-13T14:03:03.137Z,29.10
2022-09-13T14:04:10.445Z,29.00
2022-09-13T14:05:43.101Z,29.00
2022-09-13T14:06:53.698Z,28.90
2022-09-13T14:08:19.224Z,28.90
2022-09-13T14:09:33.009Z,28.70
2022-09-13T14:10:49.738Z,28.60
2022-09-13T14:12:12.817Z,28.60
2022-09-13T14:13:39.566Z,28.50
2022-09-13T14:14:51.587Z,28.40
2022-09-13T14:16:17.829Z,28.30
2022-09-13T14:17:25.421Z,28.30
2022-09-13T14:18:51.141Z,28.20
2022-09-13T14:19:55.443Z,28.10
2022-09-13T14:20:59.057Z,28.10
2022-09-13T14:22:21.108Z,28.10
2022-09-13T14:23:22.594Z,28.10
2022-09-13T14:24:24.942Z,28.10
2022-09-13T14:25:26.596Z,28.00
2022-09-13T14:26:28.235Z,28.00
2022-09-13T14:27:35.735Z,28.00
2022-09-13T14:28:37.468Z,28.00
2022-09-13T14:29:39.298Z,28.00
2022-09-13T14:30:40.864Z,28.00
2022-09-13T14:31:47.208Z,28.00
2022-09-13T14:32:52.991Z,28.00
2022-09-13T14:33:54.435Z,28.00
2022-09-13T14:35:05.342Z,27.90
2022-09-13T14:36:15.897Z,27.90
2022-09-13T14:37:23.613Z,27.80
2022-09-13T14:38:33.488Z,27.80
2022-09-13T14:39:35.134Z,27.70
2022-09-13T14:40:38.397Z,27.70
2022-09-13T14:41:40.367Z,27.60
2022-09-13T14:42:44.456Z,27.60
2022-09-13T14:43:48.394Z,27.60
2022-09-13T14:44:50.424Z,27.50
2022-09-13T14:46:09.498Z,27.50
2022-09-13T14:47:25.958Z,27.50
2022-09-13T14:48:37.273Z,27.50
2022-09-13T14:49:49.185Z,27.50
2022-09-13T14:50:57.513Z,27.50
2022-09-13T14:52:08.209Z,27.50
2022-09-13T14:53:18.580Z,27.40
2022-09-13T14:54:22.479Z,27.30